Flight Track Log - Related Links

Times and Time Zones

All times are in EDT time to prevent confusion due to time zone crossing. See the XOJ784 flight status page for this flight to view local times or setup timezone preferences in your user account.

Time Position Orientation Groundspeed Altitude Reporting Facility
EDT Latitude Longitude Course Direction KTS MPH feet Rate Location/Type
02:36PM 39.7167 -86.2833 12° North 176 203 1,600  Level Indianapolis TRACON
02:38PM 39.8072 -86.2586 12° North 293 337 6,300 2,874 Climbing Indianapolis Center
02:39PM 39.8044 -86.3581 268° West 294 338 9,600 2,732 Climbing Indianapolis Center
02:40PM 39.7686 -86.4564 245° Southwest 303 349 11,900 2,488 Climbing Indianapolis Center
02:41PM 39.7550 -86.6042 263° West 343 395 14,700 2,390 Climbing Indianapolis Center
02:42PM 39.7464 -86.7328 265° West 352 405 16,800 1,902 Climbing Indianapolis Center
02:43PM 39.7369 -86.8678 265° West 370 426 18,600 1,854 Climbing Indianapolis Center
02:44PM 39.7286 -87.0064 266° West 384 442 20,600 1,951 Climbing Indianapolis Center
02:45PM 39.7214 -87.1492 266° West 397 457 22,600 1,951 Climbing Indianapolis Center
02:46PM 39.7375 -87.2967 278° West 410 472 24,600 1,839 Climbing Indianapolis Center
02:47PM 39.7531 -87.4483 278° West 423 487 26,400 1,805 Climbing Indianapolis Center
02:48PM 39.7644 -87.6081 275° West 440 506 28,300 1,707 Climbing Indianapolis Center
02:49PM 39.7364 -87.8022 259° West 455 524 29,900 1,561 Climbing Indianapolis Center
02:50PM 39.7133 -87.9703 260° West 466 536 31,500 1,024 Climbing Indianapolis Center
02:51PM 39.6883 -88.1419 259° West 480 552 32,000 823 Climbing Indianapolis Center
02:52PM 39.6631 -88.3253 260° West 508 585 33,200 976 Climbing Indianapolis Center
02:53PM 39.6350 -88.5081 259° West 515 593 34,000 1,122 Climbing Indianapolis Center
02:54PM 39.6083 -88.6936 259° West 522 601 35,500 1,707 Climbing Indianapolis Center
02:55PM 39.6025 -88.8756 268° West 514 592 37,500 1,974 Climbing Indianapolis Center
02:55PM 39.6103 -88.9153 284° West 512 589 38,000 1,948 Climbing Kansas City Center
02:56PM 39.6719 -89.1139 292° West 497 572 40,000 976 Climbing Kansas City Center
02:57PM 39.7231 -89.2839 291° West 500 575 40,000  Level Kansas City Center
02:58PM 39.7736 -89.4544 291° West 503 579 40,000  Level Kansas City Center
02:59PM 39.8239 -89.6264 291° West 506 582 40,000  Level Kansas City Center
03:00PM 39.8442 -89.8094 278° West 511 588 40,000  Level Kansas City Center
03:01PM 39.8389 -89.9914 268° West 507 583 40,000  Level Kansas City Center
03:03PM 39.8317 -90.1711 267° West 502 578 40,000  Level Kansas City Center
03:04PM 39.8239 -90.3903 267° West 502 578 40,000  Level Kansas City Center
03:05PM 39.8164 -90.5683 267° West 497 572 40,000  Level Kansas City Center
03:06PM 39.8089 -90.7458 267° West 493 567 40,000  Level Kansas City Center
03:07PM 39.8014 -90.9239 267° West 493 567 40,000  Level Kansas City Center
03:08PM 39.7914 -91.1142 266° West 489 563 40,000  Level Kansas City Center
03:09PM 39.7828 -91.2919 266° West 493 567 40,000  Level Kansas City Center
03:10PM 39.7747 -91.4717 267° West 499 574 40,000  Level Kansas City Center
03:11PM 39.7647 -91.6494 266° West 498 573 40,000  Level Kansas City Center
03:12PM 39.7558 -91.8242 266° West 492 566 40,000  Level Kansas City Center
03:13PM 39.7472 -91.9986 266° West 489 563 40,000  Level Kansas City Center
03:14PM 39.7361 -92.2086 266° West 487 560 40,000 -585 Level Kansas City Center
03:15PM 39.7253 -92.3856 266° West 490 564 38,800 -976 Descending Kansas City Center
03:16PM 39.7144 -92.5675 266° West 499 574 38,000 -1,122 Descending Kansas City Center
03:17PM 39.7039 -92.7486 266° West 503 579 36,500 -2,146 Descending Kansas City Center
03:18PM 39.6919 -92.9283 265° West 503 579 33,600 -3,290 Descending Kansas City Center
03:19PM 39.6831 -93.0978 266° West 486 559 29,700 -3,561 Descending Kansas City Center
03:20PM 39.6736 -93.2433 265° West 423 487 26,300 -3,512 Descending Kansas City Center
03:21PM 39.6619 -93.4086 265° West 391 450 22,500 -3,290 Descending Kansas City Center
03:22PM 39.6539 -93.5408 266° West 380 437 19,500 -2,976 Descending Kansas City Center
03:23PM 39.6458 -93.6678 265° West 361 415 16,400 -2,878 Descending Kansas City Center
03:24PM 39.6344 -93.7947 263° West 343 395 13,600 -2,293 Descending Kansas City Center
03:25PM 39.5875 -93.8869 237° Southwest 320 368 11,700 -1,659 Descending Kansas City Center
03:26PM 39.5342 -93.9839 235° Southwest 297 342 10,200 -1,258 Descending Kansas City Center
03:27PM 39.4900 -94.0678 236° Southwest 295 339 9,100 -1,122 Descending Kansas City Center
03:28PM 39.4386 -94.1628 235° Southwest 289 333 7,900 -1,122 Descending Kansas City Center
03:29PM 39.3953 -94.2442 235° Southwest 287 330 6,800 -1,113 Descending Kansas City Center
03:30PM 39.3475 -94.3328 235° Southwest 270 311 5,600 -1,073 Descending Kansas City Center
03:31PM 39.3050 -94.4100 235° Southwest 274 315 4,600 -976 Descending Kansas City Center
03:32PM 39.2633 -94.4881 235° Southwest 276 318 3,600 -927 Descending Kansas City Center
03:33PM 39.2139 -94.5650 230° Southwest 247 284 2,700 -878 Descending Kansas City Center
03:34PM 39.1683 -94.5811 195° South 173 199 1,800 -829 Descending Kansas City Center
03:35PM 39.1303 -94.5917 192° South 134 154 1,000 -787 Descending Kansas City Center
03:37PM 39.1229 -94.5928 180° South  Level Estimated

Login

Don't have an account? Register now (free) for customized features, flight alerts, and more!